Weather observations for the past three days for
Mount Washington
Imperial (Metric)
Date Time (edt) Wind (mph) Vis. (mi.) Weather Sky Cond. Temperature (ºF) Relative Humidity Wind Chill (°F) Heat Index (°F) Pressure Precipitation (in)
Air Dwpt 6 hour altimeter (in) sea level (mb) 1 hr 3 hr 6 hr
Max. Min.
23 19:47 W 62 G 70 0.00 Light Showers Rain Fog and Windy VV000 57.2 57.2 57.9 56.3 100% 0 0.0 0.09
23 18:55 W 72 G 82 0.00 Fog and Windy VV000 57.2 57.2 100% 0 0.0
23 17:48 SW 54 G 72 0.00 Light Showers Rain Fog and Windy VV000 57.2 57.2 100% 0 0.0
23 16:51 SW 52 G 82 0.00 Light Showers Rain Fog and Windy VV000 57.2 57.2 100% 0 0.0
23 15:48 SW 60 G 75 0.00 Light Showers Rain Fog and Windy VV000 57.2 57.2 100% 0 0.0
23 14:50 SW 55 G 66 0.00 Fog and Windy VV000 57.2 57.2 100% 0 0.0
23 13:48 W 45 G 55 0.00 Light Showers Rain Fog and Windy VV000 57.2 57.2 56.7 52.2 100% 0 0.0 0.37
23 12:50 W 48 0.00 Light Showers Rain Fog and Windy VV000 57.2 57.2 100% 0 0.0
23 11:57 W 51 G 55 0.00 Light Showers Rain Fog and Windy VV000 55.4 55.4 100% 0 0.0
23 10:56 W 61 G 63 0.00 Fog and Windy VV000 55.4 55.4 100% 0 0.0
23 09:52 W 63 G 72 0.00 Light Rain Fog and Windy VV000 55.4 55.4 100% 0 0.0
23 08:49 SW 49 G 62 0.00 Rain Fog and Windy VV000 53.6 53.6 100% 0 0.0
23 07:51 SW 38 G 51 0.00 Light Rain Fog and Windy VV000 53.6 53.6 54.1 52 100% 0 0.0 0.02
23 06:47 SW 43 G 52 0.06 Fog and Windy VV001 53.6 53.6 100% 0 0.0
23 05:52 SW 35 G 40 0.06 Fog and Windy VV001 53.6 53.6 100% 0 0.0
23 04:51 SW 30 G 37 40.00 Patches Fog and Windy FEW000 BKN010 OVC050 52 51.1 97% 0 0.0
23 03:58 SW 37 G 40 0.00 Fog and Windy VV000 53.6 53.6 100% 0 0.0
23 02:48 SW 33 0.00 Light Showers Rain Fog and Windy VV000 53.6 53.6 100% 0 0.0
23 01:50 W 25 0.00 Light Showers Rain Fog and Breezy VV000 53.6 53.6 52.7 50.7 100% 0 0.0 0.06
23 00:56 W 20 0.00 Light Showers Rain Fog VV000 51.8 51.8 100% 0 0.0
22 23:55 W 17 0.00 Fog VV000 51.8 51.8 100% 0 0.0
22 22:57 W 21 0.06 Light Showers Rain Fog and Breezy VV000 51.8 51.8 100% 0 0.0
22 21:57 W 15 0.06 Light Showers Rain Fog VV000 51.8 51.8 100% 0 0.0
22 20:56 W 16 0.06 Light Showers Rain Fog VV000 51.8 51.8 100% 0 0.0
22 19:49 W 10 0.13 Overcast BKN000 OVC010 50.7 50 52.9 50 97% 0 0.0 0.04
22 18:47 W 18 0.06 Fog VV001 51.8 51.8 100% 0 0.0
22 17:47 W 13 0.06 Fog VV002 51.8 51.8 100% 0 0.0
22 16:51 W 14 70.00 Overcast OVC030 53.6 50 88% 0 0.0
22 15:54 W 15 20.00 Overcast OVC030 51.8 50 94% 0 0.0
22 14:55 W 13 20.00 Light Showers Rain OVC030 51.8 50 94% 0 0.0
22 13:47 NW 14 0.06 Light Showers Rain Fog VV002 51.8 51.8 52.9 49.8 100% 0 0.0 0.25
22 12:49 NW 13 0.13 Light Showers Rain Fog VV003 53.6 50 88% 0 0.0
22 11:49 NW 10 0.06 Fog VV002 51.8 51.8 100% 0 0.0
22 10:48 NW 13 0.06 Fog VV002 51.8 51.8 100% 0 0.0
22 09:54 NW 16 0.06 Light Showers Rain Light Drizzle Fog VV002 51.8 51.8 100% 0 0.0
22 08:52 NW 12 0.06 Light Showers Rain Light Drizzle Fog VV002 50 50 100% 46 0 0.0
22 07:47 W 9 0.06 Light Drizzle Fog VV000 51.8 51.8 53.6 50.2 100% 0 0.0 0.37
22 06:50 W 17 0.06 Light Drizzle Fog VV000 51.8 51.8 100% 0 0.0
22 05:50 W 29 0.00 Fog and Windy VV000 53.6 53.6 100% 0 0.0
22 04:49 W 26 0.00 Light Showers Rain Fog and Windy VV000 51.8 51.8 100% 0 0.0
22 03:50 W 29 G 35 0.00 Light Showers Rain Fog and Windy VV000 53.6 53.6 100% 0 0.0
22 02:57 W 30 0.00 Light Showers Rain Fog and Windy VV000 51.8 51.8 100% 0 0.0
22 01:49 W 20 0.00 Light Showers Rain Fog VV000 51.8 51.8 52 50.2 100% 0 0.0 0.18
22 00:57 W 18 0.00 Light Showers Rain Fog VV000 51.8 51.8 100% 0 0.0
21 23:49 SW 12 0.06 Light Showers Rain Fog VV000 51.8 51.8 100% 0 0.0
21 22:56 SW 9 0.13 Fog VV002 50 50 100% 47 0 0.0
21 21:56 SW 8 0.06 Fog VV001 51.8 51.8 100% 0 0.0
21 20:54 SW 7 0.06 Fog VV001 51.8 51.8 100% 0 0.0
21 19:49 NW 5 0.06 Fog VV001 51.8 51.8 53.6 50 100% 0 0.0 0.03
21 18:51 W 17 0.13 Overcast BKN000 OVC003 52.3 51.8 98% 0 0.0
21 17:54 NW 13 0.06 Light Showers Rain Fog VV002 51.8 51.8 100% 0 0.0
21 16:57 NW 12 40.00 Light Showers Rain SCT000 SCT005 OVC010 50.2 49.8 99% 0 0.0
21 15:56 NW 9 0.06 Light Showers Rain BKN000 OVC005 50 49.8 99% 47 0 0.0
21 14:49 NW 12 0.06 Fog VV000 53.6 53.6 100% 0 0.0
21 13:49 NW 12 0.06 Fog VV002 53.6 53.6 55 52.3 100% 0 0.0 0.02
21 12:51 NW 13 0.00 Light Showers Rain Fog VV000 53.6 53.6 100% 0 0.0
21 11:48 W 8 0.06 Fog VV000 53.6 53.6 100% 0 0.0
21 10:48 NW 12 0.06 Fog VV000 53.6 53.6 100% 0 0.0
21 09:53 NW 13 0.06 Fog VV001 53.6 53.6 100% 0 0.0
21 08:54 NW 12 0.06 Fog VV001 55.4 55.4 100% 0 0.0
21 07:49 NW 21 0.00 Light Drizzle Fog and Breezy VV000 53.6 53.6 55.6 54.3 100% 0 0.0 0.02
21 06:49 NW 15 0.00 Light Drizzle Fog VV000 55.4 55.4 100% 0 0.0
21 05:47 NW 24 0.00 Light Drizzle Fog and Breezy VV000 55.4 55.4 100% 0 0.0
21 04:50 NW 30 0.00 Fog and Windy VV000 55.4 55.4 100% 0 0.0
21 03:58 NW 28 0.00 Fog and Windy VV000 55.4 55.4 100% 0 0.0
21 02:58 NW 30 0.00 Light Showers Rain Fog and Windy VV000 55.4 55.4 100% 0 0.0
21 01:50 NW 32 0.06 Fog and Windy VV000 55.4 55.4 55.8 54.7 100% 0 0.0 0.05
21 00:57 NW 36 0.06 Light Showers Rain Fog and Windy VV001 55.4 55.4 100% 0 0.0
20 23:57 NW 30 0.06 Fog and Windy VV001 55.4 55.4 100% 0 0.0
20 22:48 NW 28 0.06 Fog and Windy VV001 55.4 55.4 100% 0 0.0
20 21:58 NW 29 0.13 Fog and Windy BKN000 OVC100 55.6 55.2 99% 0 0.0
20 20:57 NW 38 0.06 Light Showers Rain Fog and Windy VV000 55.4 55.4 100% 0 0.0
Date Time (edt) Wind (mph) Vis. (mi.) Weather Sky Cond. Air Dwpt Max. Min. Relative Humidity Wind Chill (°F) Heat Index (°F) altimeter (in) sea level (mb) 1 hr 3 hr 6 hr
6 hour
Temperature (ºF) Pressure Precipitation (in)